C Challenger — WCX7953 — position and weather

sailwx.info

Track history (hours):
 
Tides and Currents Weather Stations Pressure Air Temp Water Temp Dewpoint Dewpoint Depression Visibility Wind Speed Wind Dir Waves Ship Positions

C Challenger

Owner: ALPHA MARINE SERVICES, GALLIANO, LA. More information available from US FCC via Universal Licensing System and Coast Guard Vessel Documentation Center.

Last reported at 2016-May-03 02:16 UTC. Time now 2016-Sep-29 03:19 UTC.
Position N 29°18' W 090°43'.
Warning: this ship's position is months out of date.

Length 77 m; draft 4 m.

MMSI: 367124210.

Date/timePositionNaut miles runAvg speedWind from/ knotsBaromVisibWave heightAir tempDewpointWater temp
2016-May-03 02:16N 29°18' W 090°43'5 7.2
2016-May-03 01:33N 29°23' W 090°44'8 7.6
2016-May-03 00:33N 29°30' W 090°43'3 2.9
2016-May-02 23:33N 29°33' W 090°41'0 0.0
2016-May-02 22:33N 29°33' W 090°41'0 0.0
2016-May-02 21:34N 29°33' W 090°41'0 0.0
2016-May-02 20:34N 29°33' W 090°41'0 0.0
2016-May-02 19:34N 29°33' W 090°41'0 0.0
2016-May-02 18:33N 29°33' W 090°41'0 0.0
2016-May-02 17:34N 29°33' W 090°41'0 0.0
2016-May-02 16:34N 29°33' W 090°41'0 0.0
2016-May-02 15:33N 29°33' W 090°41'0 0.0
2016-May-02 14:33N 29°33' W 090°41'0 0.0
2016-May-02 13:33N 29°33' W 090°41'0 0.0
2016-May-02 12:33N 29°33' W 090°41'0 0.0
2016-May-02 11:33N 29°33' W 090°41'0 0.4
2016-May-02 10:33N 29°33' W 090°42'4 4.1
2016-May-02 09:34N 29°29' W 090°43'  
Track history (hours):
 
Tides and Currents Weather Stations Pressure Air Temp Water Temp Dewpoint Dewpoint Depression Visibility Wind Speed Wind Dir Waves Ship Positions

C Challenger

Owner: ALPHA MARINE SERVICES, GALLIANO, LA. More information available from US FCC via Universal Licensing System and Coast Guard Vessel Documentation Center.

Last reported at 2016-May-03 02:16 UTC. Time now 2016-Sep-29 03:19 UTC.
Position N 29°18' W 090°43'.
Warning: this ship's position is months out of date.

Length 77 m; draft 4 m.

MMSI: 367124210.

Date/timePositionNaut miles runAvg speedWind from/ knotsBaromVisibWave heightAir tempDewpointWater temp
2016-May-03 02:16N 29°18' W 090°43'5 7.2
2016-May-03 01:33N 29°23' W 090°44'8 7.6
2016-May-03 00:33N 29°30' W 090°43'3 2.9
2016-May-02 23:33N 29°33' W 090°41'0 0.0
2016-May-02 22:33N 29°33' W 090°41'0 0.0
2016-May-02 21:34N 29°33' W 090°41'0 0.0
2016-May-02 20:34N 29°33' W 090°41'0 0.0
2016-May-02 19:34N 29°33' W 090°41'0 0.0
2016-May-02 18:33N 29°33' W 090°41'0 0.0
2016-May-02 17:34N 29°33' W 090°41'0 0.0
2016-May-02 16:34N 29°33' W 090°41'0 0.0
2016-May-02 15:33N 29°33' W 090°41'0 0.0
2016-May-02 14:33N 29°33' W 090°41'0 0.0
2016-May-02 13:33N 29°33' W 090°41'0 0.0
2016-May-02 12:33N 29°33' W 090°41'0 0.0
2016-May-02 11:33N 29°33' W 090°41'0 0.4
2016-May-02 10:33N 29°33' W 090°42'4 4.1
2016-May-02 09:34N 29°29' W 090°43'  

Dump ship's entire track history